Blackville, Arkansas
Current Conditions -  °F | °C
As of 1:56 AM on Saturday 20 Dec 2014 (Local Time) from KM19 Reporting Station
Overcast Overcast  
Wind Chill: 34°   Ceiling: 4300
Heat Index: 38°   Visibility: 9mi
Dew Point: 35°   Wind: 5mph
Humidity: 89%   Direction: 20°NNE
Pressure: 30.26"   Gusts: NA
Location:  35.5678°N, 91.2073°W
Report Text: KM19 200756Z AUTO 02004KT 9SM OVC043 03/02 A3026 RMK AO2 T00330016 SLP249
Loading
Personal Weather Stations






























Interactive Weather Map New forecast layout! Learn more

10-Day Weather Forecast

Advertisements
Track Severe Weather on mobile